Skip Navigation Links Skip Navigation Links

Current Weather

Cambridge Bay Apt, Cambridge Bay, N.T.

For information only: do not use for flight planning or navigation.
Latest weather
Observation time Friday, May 29, 2020 4:42 PM MDT
Local time Friday, May 29, 2020 4:59 PM MDT
Flight conditions Marginal Visual Meteorological Conditions
Winds
Wind direction North (350°)
Wind speed 12 mph
Visibility 15 mi.
Present weather VCSH
Sky condition
Ceiling 2,100 ft. overcast
Cloud layer few clouds 1,000 ft.
Cloud layer overcast 2,100 ft.
Temperature 30°F
Dewpoint 25°F
Altimeter 30.09 in.Hg
Derived measurements
Relative humidity 80%
Wind chill 21°F
Density altitude -1995 ft.
Sea-level pressure 30.11 in.Hg
Remarks
Special weather observation.
Visibility north.
METAR SPECI CYCB 292242Z 35010KT 15SM VCSH FEW010 OVC021 M01/M04 A3009 RMK SF2SC6 VIS N LWR SLP195

Settings

Location code

InnerDrive.Weather 4.0.6770.0 Release CLR 4.0.30319.42000
Copyright ©2018 Inner Drive Technology. All rights reserved. Portions Copyright ©1986-2018 David Braverman.

Find weather

Site navigation


Skip Navigation Links

Place info

Page info

PayPal - The safer, easier way to pay online!

Return home.

Copyright ©2020 Inner Drive Technology. Purveyors of fine, hand-crafted computer software. Page printed 2020-05-29T22:59:32 UTC.